createdAt,value
2018-06-07T00:01:02.914Z,20.20
2018-06-07T00:03:30.697Z,20.10
2018-06-07T00:05:58.466Z,20.10
2018-06-07T00:08:33.285Z,20.10
2018-06-07T00:11:15.741Z,20.10
2018-06-07T00:13:43.577Z,20.10
2018-06-07T00:16:11.414Z,20.10
2018-06-07T00:18:39.597Z,20.00
2018-06-07T00:21:07.443Z,20.00
2018-06-07T00:23:35.206Z,20.10
2018-06-07T00:26:03.032Z,20.10
2018-06-07T00:28:31.069Z,20.10
2018-06-07T00:30:58.839Z,20.10
2018-06-07T00:33:26.601Z,20.10
2018-06-07T00:35:54.344Z,20.00
2018-06-07T00:38:22.142Z,19.90
2018-06-07T00:43:17.653Z,19.80
2018-06-07T00:45:45.510Z,20.00
2018-06-07T00:48:13.377Z,20.20
2018-06-07T00:50:41.565Z,20.00
2018-06-07T00:53:09.404Z,19.90
2018-06-07T00:55:37.149Z,19.90
2018-06-07T00:58:04.923Z,19.90
2018-06-07T01:00:32.724Z,19.90
2018-06-07T01:03:00.567Z,19.80
2018-06-07T01:05:28.690Z,19.80
2018-06-07T01:07:56.478Z,19.80
2018-06-07T01:10:24.305Z,19.80
2018-06-07T01:13:06.677Z,19.80
2018-06-07T01:15:34.440Z,19.80
2018-06-07T01:18:02.241Z,19.90
2018-06-07T01:20:29.974Z,19.90
2018-06-07T01:22:58.021Z,19.90
2018-06-07T01:25:25.819Z,19.80
2018-06-07T01:27:53.580Z,19.90
2018-06-07T01:30:31.834Z,19.80
2018-06-07T01:33:26.221Z,19.80
2018-06-07T01:35:56.225Z,19.80
2018-06-07T01:38:35.212Z,19.90
2018-06-07T01:41:03.070Z,19.90
2018-06-07T01:43:30.861Z,19.90
2018-06-07T01:45:58.654Z,20.00
2018-06-07T01:48:26.509Z,20.00
2018-06-07T01:50:54.377Z,20.10
2018-06-07T01:53:22.142Z,20.20
2018-06-07T01:55:50.047Z,20.20
2018-06-07T01:58:17.910Z,20.30
2018-06-07T02:00:45.722Z,20.40
2018-06-07T02:03:13.570Z,20.40
2018-06-07T02:05:41.582Z,20.50
2018-06-07T02:08:09.365Z,20.50
2018-06-07T02:10:37.116Z,20.60
2018-06-07T02:13:05.026Z,20.60
2018-06-07T02:15:32.865Z,20.70
2018-06-07T02:18:00.642Z,20.70
2018-06-07T02:20:28.421Z,20.80
2018-06-07T02:22:56.205Z,20.80
2018-06-07T02:25:23.952Z,20.90
2018-06-07T02:27:51.765Z,20.90
2018-06-07T02:30:19.550Z,20.90
2018-06-07T02:32:47.442Z,21.00
2018-06-07T02:35:15.281Z,21.00
2018-06-07T02:40:10.965Z,21.10
2018-06-07T02:42:38.772Z,21.00
2018-06-07T02:45:06.569Z,21.00
2018-06-07T02:47:34.409Z,21.00
2018-06-07T02:50:02.195Z,21.10
2018-06-07T02:52:29.945Z,21.10
2018-06-07T02:54:57.700Z,21.00
2018-06-07T02:57:25.437Z,21.10
2018-06-07T02:59:53.365Z,21.10
2018-06-07T03:02:21.157Z,21.10
2018-06-07T03:04:49.010Z,21.10
2018-06-07T03:07:16.781Z,21.10
2018-06-07T03:09:44.963Z,21.10
2018-06-07T03:12:12.740Z,21.10
2018-06-07T03:14:40.544Z,21.00
2018-06-07T03:17:08.298Z,21.00
2018-06-07T03:19:36.248Z,21.00
2018-06-07T03:22:04.149Z,21.00
2018-06-07T03:24:31.957Z,21.00
2018-06-07T03:26:59.729Z,21.00
2018-06-07T03:29:27.609Z,21.00
2018-06-07T03:31:55.384Z,21.00
2018-06-07T03:34:23.169Z,21.00
2018-06-07T03:36:51.006Z,21.00
2018-06-07T03:39:19.073Z,21.10
2018-06-07T03:41:46.878Z,21.00
2018-06-07T03:44:14.774Z,21.10
2018-06-07T03:46:42.589Z,21.10
2018-06-07T03:49:10.646Z,21.10
2018-06-07T03:51:38.443Z,21.10
2018-06-07T03:54:06.250Z,21.10
2018-06-07T03:56:34.029Z,21.20
2018-06-07T03:59:02.029Z,21.20
2018-06-07T04:04:12.380Z,21.20
2018-06-07T04:06:40.244Z,21.20
2018-06-07T04:09:08.358Z,21.30
2018-06-07T04:11:36.199Z,21.30
2018-06-07T04:14:04.050Z,21.20
2018-06-07T04:16:31.992Z,21.30
2018-06-07T04:18:59.932Z,21.40
2018-06-07T04:21:27.785Z,21.30
2018-06-07T04:23:55.649Z,21.20
2018-06-07T04:28:51.557Z,21.10
2018-06-07T04:31:19.461Z,21.10
2018-06-07T04:33:47.316Z,21.00
2018-06-07T04:38:43.129Z,21.00
2018-06-07T04:41:10.932Z,21.00
2018-06-07T04:43:38.939Z,21.00
2018-06-07T04:46:06.742Z,21.00
2018-06-07T04:51:02.299Z,20.90
2018-06-07T04:53:30.070Z,21.10
2018-06-07T04:55:58.006Z,21.00
2018-06-07T04:58:26.105Z,21.10
2018-06-07T05:00:54.029Z,21.00
2018-06-07T05:03:21.972Z,21.10
2018-06-07T05:05:49.853Z,21.00
2018-06-07T05:08:17.932Z,21.00
2018-06-07T05:10:45.721Z,21.10
2018-06-07T05:13:13.845Z,21.10
2018-06-07T05:15:41.610Z,21.00
2018-06-07T05:18:09.722Z,21.00
2018-06-07T05:20:37.583Z,21.00
2018-06-07T05:23:07.469Z,21.00
2018-06-07T05:25:35.527Z,21.00
2018-06-07T05:28:03.309Z,21.10
2018-06-07T05:30:31.118Z,21.00
2018-06-07T05:32:58.892Z,21.00
2018-06-07T05:37:54.310Z,21.10
2018-06-07T05:40:22.190Z,21.50
2018-06-07T05:45:17.753Z,21.40
2018-06-07T05:47:45.599Z,21.40
2018-06-07T05:50:13.597Z,21.30
2018-06-07T05:52:41.362Z,21.30
2018-06-07T05:55:09.169Z,21.30
2018-06-07T05:57:37.028Z,21.20
2018-06-07T06:00:05.760Z,21.20
2018-06-07T06:02:33.901Z,21.30
2018-06-07T06:07:29.340Z,21.40
2018-06-07T06:09:57.277Z,21.30
2018-06-07T06:12:25.604Z,21.40
2018-06-07T06:14:53.637Z,21.40
2018-06-07T06:19:49.361Z,21.40
2018-06-07T06:22:17.130Z,21.60
2018-06-07T06:24:45.195Z,21.50
2018-06-07T06:27:13.073Z,21.50
2018-06-07T06:29:41.121Z,21.50
2018-06-07T06:32:08.901Z,21.60
2018-06-07T06:34:36.684Z,21.60
2018-06-07T06:37:04.420Z,21.60
2018-06-07T06:39:32.497Z,21.60
2018-06-07T06:42:00.253Z,21.50
2018-06-07T06:44:28.023Z,21.60
2018-06-07T06:46:55.773Z,21.60
2018-06-07T06:49:23.617Z,21.80
2018-06-07T06:51:51.406Z,21.80
2018-06-07T06:54:19.161Z,21.90
2018-06-07T06:56:47.185Z,22.00
2018-06-07T06:59:15.010Z,22.00
2018-06-07T07:01:42.773Z,22.10
2018-06-07T07:04:11.166Z,22.10
2018-06-07T07:06:38.974Z,22.20
2018-06-07T07:09:07.797Z,22.30
2018-06-07T07:11:35.537Z,22.30
2018-06-07T07:14:03.458Z,22.50
2018-06-07T07:16:31.237Z,22.60
2018-06-07T07:18:59.017Z,22.60
2018-06-07T07:21:26.813Z,22.70
2018-06-07T07:23:54.569Z,22.70
2018-06-07T07:26:22.420Z,22.70
2018-06-07T07:28:50.233Z,22.80
2018-06-07T07:31:17.977Z,22.90
2018-06-07T07:33:45.893Z,23.00
2018-06-07T07:36:13.711Z,23.10
2018-06-07T07:38:41.621Z,23.20
2018-06-07T07:43:36.985Z,23.40
2018-06-07T07:46:05.107Z,23.50
2018-06-07T07:48:33.004Z,23.70
2018-06-07T07:51:00.769Z,23.80
2018-06-07T07:53:28.528Z,23.90
2018-06-07T07:55:56.280Z,24.00
2018-06-07T08:00:51.843Z,24.20
2018-06-07T08:03:19.602Z,24.40
2018-06-07T08:05:47.436Z,24.50
2018-06-07T08:08:15.374Z,24.60
2018-06-07T08:10:43.133Z,24.70
2018-06-07T08:13:10.921Z,24.90
2018-06-07T08:15:39.577Z,25.00
2018-06-07T08:18:07.360Z,25.10
2018-06-07T08:20:35.105Z,25.30
2018-06-07T08:23:02.877Z,25.40
2018-06-07T08:25:30.673Z,25.70
2018-06-07T08:27:58.441Z,25.80
2018-06-07T08:30:27.276Z,26.00
2018-06-07T08:32:55.025Z,26.10
2018-06-07T08:35:22.862Z,26.10
2018-06-07T08:37:50.683Z,26.20
2018-06-07T08:40:18.496Z,26.20
2018-06-07T08:42:46.590Z,26.20
2018-06-07T08:45:14.503Z,26.20
2018-06-07T08:47:42.289Z,26.20
2018-06-07T08:50:10.042Z,26.30
2018-06-07T08:52:37.810Z,26.40
2018-06-07T08:55:05.604Z,26.40
2018-06-07T08:57:33.473Z,26.40
2018-06-07T09:00:01.241Z,26.50
2018-06-07T09:02:29.017Z,26.50
2018-06-07T09:04:56.786Z,26.60
2018-06-07T09:07:24.565Z,26.70
2018-06-07T09:09:52.369Z,26.90
2018-06-07T09:12:20.117Z,27.00
2018-06-07T09:14:47.897Z,27.10
2018-06-07T09:17:19.585Z,27.10
2018-06-07T09:19:47.778Z,27.00
2018-06-07T09:22:15.805Z,27.20
2018-06-07T09:24:43.578Z,27.20
2018-06-07T09:27:11.337Z,27.30
2018-06-07T09:29:39.277Z,27.40
2018-06-07T09:32:07.041Z,27.50
2018-06-07T09:34:34.832Z,27.50
2018-06-07T09:39:30.364Z,27.60
2018-06-07T09:41:58.114Z,27.60
2018-06-07T09:44:25.925Z,27.70
2018-06-07T09:46:53.736Z,27.70
2018-06-07T09:49:21.798Z,27.60
2018-06-07T09:51:49.595Z,27.60
2018-06-07T09:54:17.352Z,27.50
2018-06-07T09:56:45.124Z,27.60
2018-06-07T09:59:13.074Z,27.50
2018-06-07T10:01:40.848Z,27.40
2018-06-07T10:04:08.649Z,27.40
2018-06-07T10:06:36.464Z,27.40
2018-06-07T10:09:06.532Z,27.30
2018-06-07T10:11:34.289Z,27.30
2018-06-07T10:14:02.029Z,27.30
2018-06-07T10:16:29.785Z,27.20
2018-06-07T10:18:57.581Z,27.20
2018-06-07T10:21:25.530Z,27.10
2018-06-07T10:23:53.341Z,27.10
2018-06-07T10:26:21.101Z,27.00
2018-06-07T10:28:48.945Z,26.90
2018-06-07T10:31:16.858Z,26.90
2018-06-07T10:33:44.613Z,26.90
2018-06-07T10:36:12.356Z,26.90
2018-06-07T10:38:40.166Z,26.90
2018-06-07T10:41:07.904Z,26.90
2018-06-07T10:43:35.674Z,27.00
2018-06-07T10:46:03.441Z,27.10
2018-06-07T10:48:31.197Z,27.10
2018-06-07T10:50:59.001Z,27.20
2018-06-07T10:53:26.777Z,27.20
2018-06-07T10:55:54.514Z,27.30
2018-06-07T10:58:22.277Z,27.30
2018-06-07T11:00:50.080Z,27.40
2018-06-07T11:03:17.937Z,27.50
2018-06-07T11:05:45.705Z,27.60
2018-06-07T11:08:13.580Z,27.60
2018-06-07T11:13:08.994Z,27.70
2018-06-07T11:15:36.759Z,27.70
2018-06-07T11:18:04.635Z,27.70
2018-06-07T11:23:00.038Z,27.80
2018-06-07T11:25:27.826Z,27.90
2018-06-07T11:27:55.749Z,27.80
2018-06-07T11:30:23.759Z,27.80
2018-06-07T11:35:19.192Z,27.90
2018-06-07T11:37:47.280Z,27.80
2018-06-07T11:40:15.105Z,27.90
2018-06-07T11:42:42.856Z,27.90
2018-06-07T11:45:10.638Z,28.00
2018-06-07T11:47:38.391Z,27.90
2018-06-07T11:50:06.577Z,28.00
2018-06-07T11:52:34.340Z,28.00
2018-06-07T11:55:02.197Z,28.30
2018-06-07T11:57:29.966Z,28.10
2018-06-07T11:59:57.837Z,28.10
2018-06-07T12:02:25.686Z,28.20
2018-06-07T12:04:53.749Z,28.30
2018-06-07T12:07:21.548Z,28.40
2018-06-07T12:09:49.688Z,28.50
2018-06-07T12:12:17.652Z,28.50
2018-06-07T12:14:45.433Z,28.60
2018-06-07T12:17:13.200Z,28.60
2018-06-07T12:19:40.950Z,28.70
2018-06-07T12:22:08.733Z,28.70
2018-06-07T12:24:36.549Z,28.70
2018-06-07T12:27:04.352Z,28.70
2018-06-07T12:29:32.156Z,28.60
2018-06-07T12:32:00.614Z,28.60
2018-06-07T12:34:28.393Z,28.60
2018-06-07T12:36:56.158Z,28.70
2018-06-07T12:39:23.967Z,28.70
2018-06-07T12:41:51.780Z,28.70
2018-06-07T12:44:19.526Z,28.70
2018-06-07T12:46:47.443Z,28.80
2018-06-07T12:49:15.153Z,28.80
2018-06-07T12:51:42.921Z,29.00
2018-06-07T12:54:10.677Z,29.10
2018-06-07T12:56:38.465Z,29.30
2018-06-07T12:59:06.240Z,29.30
2018-06-07T13:01:34.013Z,29.40
2018-06-07T13:04:02.301Z,29.50
2018-06-07T13:06:30.065Z,29.50
2018-06-07T13:08:58.025Z,29.50
2018-06-07T13:11:25.841Z,29.50
2018-06-07T13:13:53.649Z,29.50
2018-06-07T13:16:21.563Z,29.50
2018-06-07T13:18:49.484Z,29.40
2018-06-07T13:21:17.318Z,29.50
2018-06-07T13:23:45.138Z,29.50
2018-06-07T13:26:12.945Z,29.50
2018-06-07T13:28:40.735Z,29.50
2018-06-07T13:33:36.200Z,29.50
2018-06-07T13:36:03.994Z,29.60
2018-06-07T13:38:31.898Z,29.70
2018-06-07T13:40:59.716Z,29.80
2018-06-07T13:43:27.561Z,29.80
2018-06-07T13:45:55.345Z,29.90
2018-06-07T13:48:23.244Z,29.90
2018-06-07T13:50:51.105Z,30.00
2018-06-07T13:53:19.099Z,30.00
2018-06-07T13:55:46.849Z,30.20
2018-06-07T13:58:14.617Z,30.20
2018-06-07T14:00:42.614Z,30.20
2018-06-07T14:05:38.030Z,30.40
2018-06-07T14:08:05.790Z,30.40
2018-06-07T14:10:33.614Z,30.40
2018-06-07T14:13:01.377Z,30.50
2018-06-07T14:15:29.130Z,30.50
2018-06-07T14:17:56.941Z,30.60
2018-06-07T14:20:24.749Z,30.50
2018-06-07T14:22:52.626Z,30.50
2018-06-07T14:25:20.385Z,30.30
2018-06-07T14:27:48.558Z,30.30
2018-06-07T14:30:16.350Z,30.20
2018-06-07T14:32:44.181Z,30.10
2018-06-07T14:35:12.020Z,30.10
2018-06-07T14:37:40.023Z,30.10
2018-06-07T14:40:08.017Z,30.10
2018-06-07T14:42:35.803Z,30.00
2018-06-07T14:45:03.635Z,30.00
2018-06-07T14:47:32.306Z,30.10
2018-06-07T14:50:00.125Z,30.10
2018-06-07T14:52:27.942Z,30.10
2018-06-07T14:54:57.404Z,30.10
2018-06-07T14:57:25.329Z,30.10
2018-06-07T14:59:53.369Z,30.00
2018-06-07T15:02:25.397Z,29.90
2018-06-07T15:04:53.305Z,29.80
2018-06-07T15:07:21.158Z,29.60
2018-06-07T15:12:17.131Z,29.50
2018-06-07T15:14:44.974Z,29.40
2018-06-07T15:17:27.564Z,29.40
2018-06-07T15:19:55.766Z,29.30
2018-06-07T15:22:23.722Z,29.20
2018-06-07T15:24:51.662Z,29.10
2018-06-07T15:27:19.748Z,29.00
2018-06-07T15:29:47.636Z,28.90
2018-06-07T15:32:15.453Z,28.80
2018-06-07T15:34:43.215Z,28.80
2018-06-07T15:37:12.122Z,28.60
2018-06-07T15:39:40.196Z,28.50
2018-06-07T15:42:07.977Z,28.40
2018-06-07T15:47:03.433Z,28.20
2018-06-07T15:49:31.225Z,28.10
2018-06-07T15:51:58.997Z,28.00
2018-06-07T15:54:26.865Z,28.00
2018-06-07T15:56:54.633Z,28.00
2018-06-07T15:59:22.710Z,28.00
2018-06-07T16:01:50.561Z,28.00
2018-06-07T16:04:18.485Z,28.00
2018-06-07T16:06:46.269Z,27.90
2018-06-07T16:09:14.353Z,28.00
2018-06-07T16:11:42.169Z,28.00
2018-06-07T16:14:09.941Z,28.00
2018-06-07T16:16:37.693Z,28.00
2018-06-07T16:19:05.703Z,28.10
2018-06-07T16:21:33.536Z,28.20
2018-06-07T16:24:01.321Z,28.20
2018-06-07T16:26:29.289Z,28.30
2018-06-07T16:31:24.989Z,28.30
2018-06-07T16:33:52.893Z,28.30
2018-06-07T16:36:20.841Z,28.30
2018-06-07T16:38:48.845Z,28.20
2018-06-07T16:41:16.724Z,28.10
2018-06-07T16:43:44.500Z,28.00
2018-06-07T16:46:12.269Z,27.90
2018-06-07T16:48:40.074Z,27.70
2018-06-07T16:51:07.825Z,27.70
2018-06-07T16:53:35.617Z,27.50
2018-06-07T16:56:03.369Z,27.40
2018-06-07T17:00:58.765Z,27.20
2018-06-07T17:03:26.984Z,27.10
2018-06-07T17:05:54.754Z,27.10
2018-06-07T17:08:22.587Z,27.00
2018-06-07T17:10:50.368Z,26.90
2018-06-07T17:13:18.113Z,26.80
2018-06-07T17:15:45.902Z,26.70
2018-06-07T17:18:13.865Z,26.60
2018-06-07T17:23:09.347Z,26.40
2018-06-07T17:25:37.053Z,26.40
2018-06-07T17:28:04.797Z,26.30
2018-06-07T17:30:32.624Z,26.30
2018-06-07T17:33:00.491Z,26.20
2018-06-07T17:35:28.281Z,26.20
2018-06-07T17:37:56.028Z,26.10
2018-06-07T17:40:24.116Z,26.10
2018-06-07T17:42:51.922Z,26.00
2018-06-07T17:45:19.784Z,26.00
2018-06-07T17:47:47.568Z,26.00
2018-06-07T17:50:15.793Z,26.00
2018-06-07T17:52:43.549Z,26.00
2018-06-07T17:55:11.487Z,26.00
2018-06-07T17:57:39.440Z,26.00
2018-06-07T18:00:07.394Z,26.00
2018-06-07T18:05:02.854Z,26.00
2018-06-07T18:07:30.753Z,26.00
2018-06-07T18:09:58.796Z,26.00
2018-06-07T18:12:26.797Z,26.00
2018-06-07T18:14:54.662Z,25.90
2018-06-07T18:17:22.426Z,25.70
2018-06-07T18:19:50.630Z,25.80
2018-06-07T18:22:18.424Z,25.80
2018-06-07T18:24:46.182Z,25.80
2018-06-07T18:27:14.006Z,25.70
2018-06-07T18:29:41.809Z,25.70
2018-06-07T18:34:37.247Z,25.60
2018-06-07T18:37:05.085Z,25.50
2018-06-07T18:42:00.593Z,25.40
2018-06-07T18:44:28.417Z,25.30
2018-06-07T18:46:56.450Z,25.20
2018-06-07T18:49:24.244Z,25.10
2018-06-07T18:51:52.240Z,25.10
2018-06-07T18:54:20.129Z,25.00
2018-06-07T18:56:47.886Z,25.00
2018-06-07T18:59:15.808Z,24.90
2018-06-07T19:01:43.681Z,24.90
2018-06-07T19:04:11.544Z,24.80
2018-06-07T19:06:39.385Z,24.70
2018-06-07T19:09:13.037Z,24.70
2018-06-07T19:11:40.859Z,24.60
2018-06-07T19:16:41.697Z,24.50
2018-06-07T19:19:15.205Z,24.50
2018-06-07T19:24:10.657Z,24.40
2018-06-07T19:26:43.889Z,24.30
2018-06-07T19:29:11.681Z,24.20
2018-06-07T19:31:43.945Z,24.20
2018-06-07T19:34:17.163Z,24.20
2018-06-07T19:39:18.122Z,24.10
2018-06-07T19:41:51.714Z,24.00
2018-06-07T19:44:19.580Z,23.90
2018-06-07T19:46:47.409Z,23.90
2018-06-07T19:49:15.174Z,23.80
2018-06-07T19:51:43.772Z,23.80
2018-06-07T19:54:12.122Z,23.70
2018-06-07T19:56:39.961Z,23.60
2018-06-07T19:59:07.887Z,23.50
2018-06-07T20:01:35.654Z,23.50
2018-06-07T20:04:03.453Z,23.40
2018-06-07T20:06:31.381Z,23.40
2018-06-07T20:08:59.128Z,23.30
2018-06-07T20:11:26.882Z,23.20
2018-06-07T20:13:54.671Z,23.20
2018-06-07T20:16:22.594Z,23.00
2018-06-07T20:18:50.877Z,22.80
2018-06-07T20:21:18.657Z,22.90
2018-06-07T20:23:46.429Z,22.80
2018-06-07T20:26:14.258Z,22.80
2018-06-07T20:28:42.101Z,22.70
2018-06-07T20:33:52.374Z,22.60
2018-06-07T20:36:20.382Z,22.60
2018-06-07T20:38:48.393Z,22.60
2018-06-07T20:41:16.183Z,22.50
2018-06-07T20:43:44.009Z,22.30
2018-06-07T20:46:11.803Z,22.20
2018-06-07T20:48:39.557Z,22.20
2018-06-07T20:51:07.393Z,22.10
2018-06-07T20:53:35.181Z,22.10
2018-06-07T20:56:02.952Z,22.00
2018-06-07T20:58:30.708Z,22.00
2018-06-07T21:00:58.485Z,21.90
2018-06-07T21:03:26.261Z,21.90
2018-06-07T21:05:54.269Z,21.90
2018-06-07T21:08:22.353Z,22.00
2018-06-07T21:10:50.769Z,21.90
2018-06-07T21:13:18.538Z,21.90
2018-06-07T21:15:46.313Z,21.60
2018-06-07T21:18:14.334Z,21.60
2018-06-07T21:20:42.107Z,21.70
2018-06-07T21:23:09.906Z,21.70
2018-06-07T21:25:37.694Z,21.90
2018-06-07T21:28:05.446Z,21.70
2018-06-07T21:30:33.237Z,21.70
2018-06-07T21:33:01.013Z,21.70
2018-06-07T21:35:28.781Z,21.60
2018-06-07T21:37:56.625Z,21.50
2018-06-07T21:40:24.722Z,21.50
2018-06-07T21:42:52.829Z,21.40
2018-06-07T21:45:20.587Z,21.30
2018-06-07T21:47:48.413Z,21.30
2018-06-07T21:50:16.444Z,21.20
2018-06-07T21:57:39.661Z,21.20
2018-06-07T22:00:08.482Z,21.10
2018-06-07T22:02:36.309Z,21.00
2018-06-07T22:05:04.205Z,21.00
2018-06-07T22:07:31.966Z,21.00
2018-06-07T22:10:00.657Z,21.00
2018-06-07T22:12:28.509Z,20.90
2018-06-07T22:14:56.295Z,21.10
2018-06-07T22:17:24.485Z,21.30
2018-06-07T22:19:56.960Z,21.30
2018-06-07T22:22:25.193Z,21.30
2018-06-07T22:24:53.437Z,21.20
2018-06-07T22:27:21.216Z,21.20
2018-06-07T22:29:49.114Z,21.00
2018-06-07T22:32:16.958Z,21.00
2018-06-07T22:34:44.735Z,20.90
2018-06-07T22:37:13.040Z,20.90
2018-06-07T22:39:41.119Z,20.90
2018-06-07T22:42:08.881Z,20.90
2018-06-07T22:44:36.735Z,20.90
2018-06-07T22:47:04.493Z,20.90
2018-06-07T22:49:32.317Z,20.90
2018-06-07T22:52:00.160Z,20.80
2018-06-07T22:54:27.945Z,20.80
2018-06-07T22:56:55.902Z,20.80
2018-06-07T22:59:24.077Z,20.90
2018-06-07T23:01:52.313Z,20.90
2018-06-07T23:04:20.060Z,20.80
2018-06-07T23:06:47.801Z,20.80
2018-06-07T23:09:15.657Z,20.80
2018-06-07T23:14:11.069Z,20.70
2018-06-07T23:16:38.841Z,20.70
2018-06-07T23:19:06.713Z,20.70
2018-06-07T23:21:34.489Z,20.80
2018-06-07T23:26:29.953Z,20.90
2018-06-07T23:28:57.797Z,20.80
2018-06-07T23:31:25.629Z,20.90
2018-06-07T23:33:53.646Z,20.70
2018-06-07T23:36:21.598Z,20.80
2018-06-07T23:38:49.433Z,20.80
2018-06-07T23:41:17.410Z,20.80
2018-06-07T23:43:45.188Z,20.60
2018-06-07T23:46:12.966Z,20.60
2018-06-07T23:48:40.742Z,20.60
2018-06-07T23:51:08.497Z,20.60
2018-06-07T23:53:36.949Z,20.60
2018-06-07T23:56:04.729Z,20.60
2018-06-07T23:58:32.943Z,20.70
